Time;durP1;ratioP1;P1;durP2;ratioP2;P2;SDS_P1;SDS_P2;PMS_P1;PMS_P2;Temp;Humidity;BMP_temperature;BMP_pressure;BME280_temperature;BME280_humidity;BME280_pressure;Samples;Min_cycle;Max_cycle;Signal;HPM_P1;HPM_P2
2023/12/26 00:02:24;;;;;;;4.75;1.60;;;11.50;99.90;;;;;;5116113;28;20228;-59
2023/12/26 00:04:49;;;;;;;3.35;1.50;;;11.40;99.90;;;;;;5116087;28;20173;-59
2023/12/26 00:07:15;;;;;;;4.10;1.55;;;11.50;99.90;;;;;;5116152;28;20180;-59
2023/12/26 00:09:41;;;;;;;4.82;1.48;;;11.50;99.90;;;;;;5116038;28;20648;-59
2023/12/26 00:12:07;;;;;;;3.58;1.52;;;11.50;99.90;;;;;;5115425;28;20227;-59
2023/12/26 00:14:33;;;;;;;4.20;1.80;;;11.50;99.90;;;;;;5115416;28;20173;-59
2023/12/26 00:16:59;;;;;;;7.90;1.70;;;11.40;99.90;;;;;;5116197;28;20261;-60
2023/12/26 00:19:24;;;;;;;4.35;1.60;;;11.50;99.90;;;;;;5115841;28;20169;-59
2023/12/26 00:21:50;;;;;;;5.50;1.80;;;11.40;99.90;;;;;;5115670;28;20232;-60
2023/12/26 00:24:16;;;;;;;3.40;2.03;;;11.40;99.90;;;;;;5115786;28;20177;-59
2023/12/26 00:26:42;;;;;;;3.47;1.58;;;11.40;99.90;;;;;;5115722;28;20462;-59
2023/12/26 00:29:08;;;;;;;6.82;1.80;;;11.50;99.90;;;;;;5115607;28;20172;-59
2023/12/26 00:31:33;;;;;;;4.13;1.38;;;11.50;99.90;;;;;;5115565;28;20574;-59
2023/12/26 00:33:59;;;;;;;5.20;1.80;;;11.30;99.90;;;;;;5115581;28;20200;-59
2023/12/26 00:36:25;;;;;;;3.45;1.67;;;11.40;99.90;;;;;;5115587;28;20233;-59
2023/12/26 00:38:50;;;;;;;5.30;1.90;;;11.40;99.90;;;;;;5115467;28;20169;-59
2023/12/26 00:41:16;;;;;;;2.80;1.30;;;11.30;99.90;;;;;;5115375;28;20200;-59
2023/12/26 00:43:42;;;;;;;3.38;1.50;;;11.30;99.90;;;;;;5115361;28;20755;-59
2023/12/26 00:46:08;;;;;;;4.38;1.50;;;11.30;99.90;;;;;;5115298;28;20173;-59
2023/12/26 00:48:37;;;;;;;5.60;1.77;;;11.40;99.90;;;;;;5115291;28;20641;-59
2023/12/26 00:51:03;;;;;;;4.15;1.77;;;11.30;99.90;;;;;;5114982;28;20681;-59
2023/12/26 00:53:29;;;;;;;4.80;1.92;;;11.30;99.90;;;;;;5115116;28;20173;-59
2023/12/26 00:55:54;;;;;;;4.50;1.80;;;11.30;99.90;;;;;;5115206;28;20623;-59
2023/12/26 00:58:20;;;;;;;3.58;1.92;;;11.30;99.90;;;;;;5115078;28;20230;-59
2023/12/26 01:00:46;;;;;;;3.88;1.80;;;11.20;99.90;;;;;;5114830;28;20212;-59
2023/12/26 01:03:12;;;;;;;4.28;2.00;;;11.20;99.90;;;;;;5114922;28;20181;-59
2023/12/26 01:05:37;;;;;;;5.65;1.90;;;11.20;99.90;;;;;;5114926;28;20226;-59
2023/12/26 01:08:04;;;;;;;3.55;1.70;;;11.30;99.90;;;;;;5114921;28;20507;-59
2023/12/26 01:10:29;;;;;;;2.65;1.65;;;11.20;99.90;;;;;;5114989;28;20173;-59
2023/12/26 01:12:55;;;;;;;3.50;1.80;;;11.30;99.90;;;;;;5114880;28;20591;-59
2023/12/26 01:15:21;;;;;;;3.35;1.60;;;11.30;99.90;;;;;;5114440;27;20591;-59
2023/12/26 01:17:47;;;;;;;4.70;1.95;;;11.20;99.90;;;;;;5114719;28;20177;-59
2023/12/26 01:20:13;;;;;;;4.53;1.85;;;11.20;99.90;;;;;;5114668;28;20221;-59
2023/12/26 01:22:38;;;;;;;6.25;1.70;;;11.20;99.90;;;;;;5114407;28;20232;-59
2023/12/26 01:25:05;;;;;;;3.50;1.48;;;11.20;99.90;;;;;;5114014;28;20173;-59
2023/12/26 01:27:31;;;;;;;6.00;1.60;;;11.20;99.90;;;;;;5114705;28;20259;-59
2023/12/26 01:29:59;;;;;;;3.47;1.65;;;11.20;99.90;;;;;;5114588;28;20173;-60
2023/12/26 01:32:25;;;;;;;3.20;1.80;;;11.20;99.90;;;;;;5114378;28;20181;-60
2023/12/26 01:34:51;;;;;;;3.47;1.55;;;11.20;99.90;;;;;;5114459;28;20165;-59
2023/12/26 01:37:16;;;;;;;4.53;1.55;;;11.30;99.90;;;;;;5114400;28;20170;-60
2023/12/26 01:39:42;;;;;;;4.38;1.80;;;11.30;99.90;;;;;;5114395;28;20519;-59
2023/12/26 01:42:08;;;;;;;3.15;1.25;;;11.20;99.90;;;;;;5114246;28;20642;-59
2023/12/26 01:44:34;;;;;;;2.50;1.40;;;11.20;99.90;;;;;;5114234;28;20691;-59
2023/12/26 01:47:00;;;;;;;4.22;1.60;;;11.20;99.90;;;;;;5114066;28;20181;-59
2023/12/26 01:49:26;;;;;;;4.20;1.55;;;11.20;99.90;;;;;;5114245;28;20200;-59
2023/12/26 01:51:52;;;;;;;4.30;1.70;;;11.30;99.90;;;;;;5114113;28;20216;-59
2023/12/26 01:54:19;;;;;;;3.80;1.38;;;11.40;99.90;;;;;;5114116;28;20200;-59
2023/12/26 01:56:47;;;;;;;2.83;1.30;;;11.30;99.90;;;;;;5114026;28;20173;-59
2023/12/26 01:59:14;;;;;;;3.28;1.73;;;11.20;99.90;;;;;;5114054;28;20176;-59
2023/12/26 02:01:40;;;;;;;5.35;1.80;;;11.20;99.90;;;;;;5114007;28;20270;-59
2023/12/26 02:04:06;;;;;;;4.30;1.60;;;11.30;99.90;;;;;;5113775;28;20165;-59
2023/12/26 02:06:35;;;;;;;2.42;1.52;;;11.30;99.90;;;;;;5114090;28;20526;-59
2023/12/26 02:09:03;;;;;;;4.22;1.65;;;11.30;99.90;;;;;;5113957;28;20180;-59
2023/12/26 02:11:29;;;;;;;4.85;1.58;;;11.30;99.90;;;;;;5113946;28;20185;-60
2023/12/26 02:13:55;;;;;;;2.92;1.42;;;11.30;99.90;;;;;;5113639;28;20196;-59
2023/12/26 02:16:25;;;;;;;4.47;1.60;;;11.30;99.90;;;;;;5113913;28;20173;-59
2023/12/26 02:18:51;;;;;;;4.55;1.80;;;11.40;99.90;;;;;;5113849;28;20618;-59
2023/12/26 02:21:17;;;;;;;2.95;1.55;;;11.50;99.90;;;;;;5113863;28;20646;-60
2023/12/26 02:23:44;;;;;;;5.53;1.63;;;11.50;99.90;;;;;;5113964;28;20220;-59
2023/12/26 02:26:11;;;;;;;4.13;1.40;;;11.40;99.90;;;;;;5113842;28;20606;-59
2023/12/26 02:28:37;;;;;;;5.60;1.33;;;11.30;99.90;;;;;;5113811;28;20176;-59
2023/12/26 02:31:05;;;;;;;2.92;1.33;;;11.20;99.90;;;;;;5113835;28;20169;-59
2023/12/26 02:33:31;;;;;;;5.78;1.40;;;11.20;99.90;;;;;;5114052;28;20246;-59
2023/12/26 02:36:00;;;;;;;1.98;1.17;;;11.20;99.90;;;;;;5114447;28;20567;-59
2023/12/26 02:38:26;;;;;;;3.85;1.30;;;11.30;99.90;;;;;;5117838;28;20169;-59
2023/12/26 02:40:52;;;;;;;2.75;1.13;;;11.40;99.90;;;;;;5117669;28;20565;-59
2023/12/26 02:43:26;;;;;;;3.25;1.40;;;11.50;99.90;;;;;;5117767;28;20634;-59
2023/12/26 02:45:52;;;;;;;3.67;1.30;;;11.40;99.90;;;;;;5117562;28;20694;-59
2023/12/26 02:48:18;;;;;;;3.28;1.15;;;11.40;99.90;;;;;;5117652;28;20170;-59
2023/12/26 02:50:45;;;;;;;3.22;1.23;;;11.40;99.90;;;;;;5117607;28;20162;-59
2023/12/26 02:53:10;;;;;;;1.48;1.10;;;11.40;99.90;;;;;;5117561;28;20654;-59
2023/12/26 02:55:37;;;;;;;2.70;1.20;;;11.30;99.90;;;;;;5117492;28;20173;-60
2023/12/26 02:58:03;;;;;;;2.80;1.13;;;11.30;99.90;;;;;;5117485;28;20174;-59
2023/12/26 03:00:29;;;;;;;3.53;1.30;;;11.20;99.90;;;;;;5117455;28;20180;-59
2023/12/26 03:02:55;;;;;;;2.78;1.30;;;11.20;99.90;;;;;;5117444;28;20196;-59
2023/12/26 03:05:20;;;;;;;2.13;1.17;;;11.30;99.90;;;;;;5117500;28;20169;-60
2023/12/26 03:07:46;;;;;;;2.97;1.35;;;11.30;99.90;;;;;;5117271;28;20178;-59
2023/12/26 03:10:12;;;;;;;4.55;1.50;;;11.30;99.90;;;;;;5117610;28;20170;-60
2023/12/26 03:12:37;;;;;;;4.18;1.65;;;11.30;99.90;;;;;;5117444;28;20177;-60
2023/12/26 03:15:04;;;;;;;4.03;1.75;;;11.40;99.90;;;;;;5117161;28;20169;-59
2023/12/26 03:17:30;;;;;;;5.63;1.73;;;11.30;99.90;;;;;;5116785;28;20177;-60
2023/12/26 03:19:56;;;;;;;4.63;1.75;;;11.20;99.90;;;;;;5116875;28;20623;-59
2023/12/26 03:22:22;;;;;;;3.30;1.75;;;11.30;99.90;;;;;;5116900;28;20264;-59
2023/12/26 03:24:47;;;;;;;3.90;1.85;;;11.40;99.90;;;;;;5116657;28;20170;-59
2023/12/26 03:27:14;;;;;;;5.20;1.92;;;11.40;99.90;;;;;;5116903;28;20259;-59
2023/12/26 03:29:40;;;;;;;8.30;2.33;;;11.30;99.90;;;;;;5116861;28;20203;-59
2023/12/26 03:32:09;;;;;;;5.75;1.83;;;11.30;99.90;;;;;;5116941;28;20178;-59
2023/12/26 03:34:38;;;;;;;5.90;2.20;;;11.40;99.90;;;;;;5116721;28;20177;-59
2023/12/26 03:37:04;;;;;;;8.63;3.10;;;11.40;99.90;;;;;;5116688;28;20641;-59
2023/12/26 03:39:29;;;;;;;9.38;2.63;;;11.40;99.90;;;;;;5116688;28;20264;-59
2023/12/26 03:41:56;;;;;;;7.55;2.70;;;11.40;99.90;;;;;;5115307;28;20205;-59
2023/12/26 03:44:21;;;;;;;5.65;2.50;;;11.40;99.90;;;;;;5116595;28;20226;-60
2023/12/26 03:46:47;;;;;;;7.03;2.75;;;11.30;99.90;;;;;;5115996;28;20173;-59
2023/12/26 03:49:13;;;;;;;5.85;2.25;;;11.30;99.90;;;;;;5116458;28;20173;-59
2023/12/26 03:51:38;;;;;;;6.28;2.85;;;11.20;99.90;;;;;;5116448;28;20222;-59
2023/12/26 03:54:04;;;;;;;6.93;2.63;;;11.30;99.90;;;;;;5116337;28;20197;-59
2023/12/26 03:56:31;;;;;;;8.68;2.88;;;11.30;99.90;;;;;;5116234;28;20181;-59
2023/12/26 03:58:57;;;;;;;6.65;2.58;;;11.20;99.90;;;;;;5116465;28;20165;-59
2023/12/26 04:01:23;;;;;;;10.38;2.78;;;11.20;99.90;;;;;;5116129;28;20201;-59
2023/12/26 04:03:49;;;;;;;7.60;3.08;;;11.20;99.90;;;;;;5116284;28;20642;-59
2023/12/26 04:06:15;;;;;;;7.65;2.90;;;11.20;99.90;;;;;;5116151;28;20169;-60
2023/12/26 04:08:41;;;;;;;7.07;2.97;;;11.30;99.90;;;;;;5116108;28;20496;-59
2023/12/26 04:11:08;;;;;;;8.05;2.75;;;11.30;99.90;;;;;;5115989;28;20170;-59
2023/12/26 04:13:34;;;;;;;8.60;3.17;;;11.30;99.90;;;;;;5115988;28;20170;-59
2023/12/26 04:16:00;;;;;;;9.10;3.10;;;11.30;99.90;;;;;;5115978;28;20649;-59
2023/12/26 04:18:25;;;;;;;9.52;3.20;;;11.40;99.90;;;;;;5115890;28;20629;-59
2023/12/26 04:20:51;;;;;;;5.85;3.10;;;11.30;99.90;;;;;;5115799;28;20181;-59
2023/12/26 04:23:17;;;;;;;7.78;3.13;;;11.30;99.90;;;;;;5115971;28;20300;-59
2023/12/26 04:25:42;;;;;;;8.30;3.50;;;11.20;99.90;;;;;;5115768;28;20174;-59
2023/12/26 04:28:08;;;;;;;10.85;3.10;;;11.20;99.90;;;;;;5116151;28;20214;-59
2023/12/26 04:30:34;;;;;;;9.70;3.53;;;11.40;99.90;;;;;;5115557;28;20597;-59
2023/12/26 04:33:00;;;;;;;11.27;3.80;;;11.40;99.90;;;;;;5115591;28;20519;-59
2023/12/26 04:35:26;;;;;;;7.40;3.20;;;11.40;99.90;;;;;;5114779;28;20530;-59
2023/12/26 04:37:52;;;;;;;9.43;3.78;;;11.40;99.90;;;;;;5115532;28;20177;-59
2023/12/26 04:40:17;;;;;;;11.50;4.20;;;11.30;99.90;;;;;;5115478;28;20230;-59
2023/12/26 04:42:43;;;;;;;7.82;3.20;;;11.30;99.90;;;;;;5115355;28;20292;-59
2023/12/26 04:45:11;;;;;;;7.53;3.25;;;11.20;99.90;;;;;;5115429;28;20568;-59
2023/12/26 04:47:36;;;;;;;8.00;3.05;;;11.20;99.90;;;;;;5115337;28;20173;-59
2023/12/26 04:50:02;;;;;;;7.30;2.88;;;11.30;99.90;;;;;;5115543;28;20626;-59
2023/12/26 04:52:28;;;;;;;7.18;2.95;;;11.10;99.90;;;;;;5115182;28;20178;-59
2023/12/26 04:54:54;;;;;;;8.55;2.67;;;11.00;99.90;;;;;;5115216;28;20177;-59
2023/12/26 04:57:19;;;;;;;8.00;3.38;;;11.00;99.90;;;;;;5115218;28;20200;-59
2023/12/26 04:59:45;;;;;;;5.47;2.88;;;11.10;99.90;;;;;;5114130;28;20181;-59
2023/12/26 05:02:11;;;;;;;6.57;2.97;;;11.10;99.90;;;;;;5114978;28;20335;-59
2023/12/26 05:04:38;;;;;;;5.70;3.05;;;11.20;99.90;;;;;;5115023;28;20181;-59
2023/12/26 05:07:04;;;;;;;7.78;3.05;;;11.20;99.90;;;;;;5114947;28;20197;-60
2023/12/26 05:09:30;;;;;;;8.60;3.42;;;11.20;99.90;;;;;;5115032;28;20250;-60
2023/12/26 05:11:55;;;;;;;8.43;3.20;;;11.10;99.90;;;;;;5114589;28;20652;-59
2023/12/26 05:14:21;;;;;;;6.88;3.20;;;11.20;99.90;;;;;;5114851;28;20173;-59
2023/12/26 05:16:48;;;;;;;4.70;3.00;;;11.20;99.90;;;;;;5114907;28;20174;-59
2023/12/26 05:19:15;;;;;;;8.40;3.72;;;11.30;99.90;;;;;;5114390;28;20181;-59
2023/12/26 05:21:40;;;;;;;8.60;3.28;;;11.30;99.90;;;;;;5114165;28;20735;-59
2023/12/26 05:24:06;;;;;;;8.38;3.55;;;11.30;99.90;;;;;;5114401;28;20193;-59
2023/12/26 05:26:42;;;;;;;7.28;3.50;;;11.50;99.90;;;;;;5113830;28;20179;-59
2023/12/26 05:29:09;;;;;;;8.43;3.58;;;11.50;99.90;;;;;;5113711;28;20234;-59
2023/12/26 05:31:35;;;;;;;9.80;4.03;;;11.40;99.90;;;;;;5113648;28;20170;-59
2023/12/26 05:34:03;;;;;;;9.63;3.83;;;11.40;99.90;;;;;;5113714;28;20588;-59
2023/12/26 05:36:30;;;;;;;10.20;4.43;;;11.50;99.90;;;;;;5113703;28;20169;-60
2023/12/26 05:38:57;;;;;;;8.75;4.10;;;11.50;99.90;;;;;;5113529;28;20710;-59
2023/12/26 05:41:23;;;;;;;9.20;4.40;;;11.40;99.90;;;;;;5113513;28;20204;-59
2023/12/26 05:43:49;;;;;;;7.72;3.80;;;11.30;99.90;;;;;;5113542;28;20529;-59
2023/12/26 05:46:14;;;;;;;13.55;4.07;;;11.30;99.90;;;;;;5113508;28;20256;-59
2023/12/26 05:48:43;;;;;;;9.88;3.95;;;11.30;99.90;;;;;;5113444;28;20177;-59
2023/12/26 05:51:09;;;;;;;11.13;3.75;;;11.30;99.90;;;;;;5113420;28;20204;-59
2023/12/26 05:53:35;;;;;;;9.05;2.80;;;11.10;99.90;;;;;;5113122;28;20622;-59
2023/12/26 05:56:00;;;;;;;11.55;3.60;;;11.10;99.90;;;;;;5113313;28;20192;-59
2023/12/26 05:58:27;;;;;;;11.55;3.65;;;11.10;99.90;;;;;;5113354;28;20172;-60
2023/12/26 06:00:53;;;;;;;8.95;3.00;;;11.10;99.90;;;;;;5113322;28;20188;-59
2023/12/26 06:03:19;;;;;;;8.13;2.60;;;11.10;99.90;;;;;;5113491;28;20267;-59
2023/12/26 06:05:46;;;;;;;7.93;3.30;;;11.00;99.90;;;;;;5113241;28;20168;-59
2023/12/26 06:08:12;;;;;;;10.75;2.60;;;11.00;99.90;;;;;;5113186;28;20183;-59
2023/12/26 06:10:38;;;;;;;8.85;2.70;;;11.00;99.90;;;;;;5112117;28;20522;-59
2023/12/26 06:13:04;;;;;;;10.57;2.35;;;11.00;99.90;;;;;;5113113;28;20169;-59
2023/12/26 06:15:30;;;;;;;7.47;2.28;;;10.90;99.90;;;;;;5113448;28;20178;-59
2023/12/26 06:17:58;;;;;;;9.98;2.70;;;10.90;99.90;;;;;;5113018;28;20529;-59
2023/12/26 06:20:27;;;;;;;9.27;2.15;;;10.80;99.90;;;;;;5113028;28;20204;-59
2023/12/26 06:22:54;;;;;;;7.22;2.17;;;10.70;99.90;;;;;;5072205;28;1154864;-59
2023/12/26 06:25:20;;;;;;;8.18;2.28;;;10.80;99.90;;;;;;5113922;28;20192;-59
2023/12/26 06:27:45;;;;;;;11.88;2.47;;;10.70;99.90;;;;;;5114308;28;20623;-59
2023/12/26 06:30:12;;;;;;;6.72;2.35;;;10.70;99.90;;;;;;5113799;28;20210;-60
2023/12/26 06:32:37;;;;;;;7.53;2.53;;;10.70;99.90;;;;;;5113871;28;20189;-59
2023/12/26 06:35:03;;;;;;;9.63;2.60;;;10.60;99.90;;;;;;5113776;28;20264;-59
2023/12/26 06:37:29;;;;;;;7.97;2.30;;;10.50;99.90;;;;;;5113467;28;20656;-59
2023/12/26 06:39:55;;;;;;;8.43;2.42;;;10.40;99.90;;;;;;5113717;28;20173;-60
2023/12/26 06:42:21;;;;;;;7.80;1.90;;;10.40;99.90;;;;;;5113690;28;20721;-59
2023/12/26 06:44:46;;;;;;;8.30;2.30;;;10.40;99.90;;;;;;5113631;28;20191;-60
2023/12/26 06:47:12;;;;;;;12.05;2.53;;;10.40;99.90;;;;;;5113668;28;20173;-60
2023/12/26 06:49:46;;;;;;;6.60;2.03;;;10.40;99.90;;;;;;5113664;28;20177;-59
2023/12/26 06:52:13;;;;;;;7.22;2.15;;;10.20;99.90;;;;;;5113657;28;20184;-59
2023/12/26 06:54:39;;;;;;;7.90;2.30;;;10.20;99.90;;;;;;5113649;28;20181;-60
2023/12/26 06:57:08;;;;;;;6.70;2.05;;;10.20;99.90;;;;;;5113507;28;20536;-59
2023/12/26 06:59:34;;;;;;;10.45;2.53;;;10.20;99.90;;;;;;5112932;28;20252;-59
2023/12/26 07:02:00;;;;;;;5.57;2.22;;;10.10;99.90;;;;;;5112596;28;20199;-59
2023/12/26 07:04:26;;;;;;;8.88;2.42;;;10.10;99.90;;;;;;5112720;28;20638;-60
2023/12/26 07:06:52;;;;;;;7.95;1.67;;;10.10;99.90;;;;;;5112466;28;20178;-60
2023/12/26 07:09:18;;;;;;;7.78;1.88;;;10.00;99.90;;;;;;5112975;28;20177;-59
2023/12/26 07:11:43;;;;;;;9.45;2.53;;;10.00;99.90;;;;;;5112843;28;20172;-59
2023/12/26 07:14:09;;;;;;;8.27;2.40;;;10.00;99.90;;;;;;5112834;28;20233;-59
2023/12/26 07:16:35;;;;;;;8.90;2.53;;;10.00;99.90;;;;;;5113073;28;20186;-59
2023/12/26 07:19:02;;;;;;;8.50;1.67;;;10.00;99.90;;;;;;5112837;28;20213;-59
2023/12/26 07:21:27;;;;;;;8.20;2.00;;;9.90;99.90;;;;;;5112479;28;20193;-59
2023/12/26 07:23:53;;;;;;;10.82;2.33;;;9.80;99.90;;;;;;5116517;28;20546;-59
2023/12/26 07:26:21;;;;;;;9.95;2.00;;;9.80;99.90;;;;;;5116420;28;20169;-60
2023/12/26 07:28:47;;;;;;;9.07;3.17;;;9.80;99.90;;;;;;5116295;28;20222;-59
2023/12/26 07:31:22;;;;;;;13.13;3.55;;;9.80;99.90;;;;;;5116772;28;20177;-59
2023/12/26 07:33:51;;;;;;;10.52;3.72;;;9.80;99.90;;;;;;5116955;28;20177;-59
2023/12/26 07:36:17;;;;;;;7.30;2.22;;;9.90;99.90;;;;;;5116616;28;20181;-59
2023/12/26 07:38:43;;;;;;;7.65;2.35;;;9.90;99.90;;;;;;5116217;28;20264;-57
2023/12/26 07:41:09;;;;;;;9.18;2.03;;;10.00;99.90;;;;;;5116412;28;20243;-57
2023/12/26 07:43:34;;;;;;;8.63;2.55;;;9.90;99.90;;;;;;5115629;28;20176;-57
2023/12/26 07:46:00;;;;;;;7.03;2.20;;;9.90;99.90;;;;;;5116043;28;20185;-57
2023/12/26 07:48:26;;;;;;;7.53;1.90;;;9.80;99.90;;;;;;5113331;28;20757;-57
2023/12/26 07:50:51;;;;;;;7.97;2.05;;;9.90;99.90;;;;;;5114424;28;20184;-57
2023/12/26 07:53:17;;;;;;;9.93;2.00;;;9.80;99.90;;;;;;5116152;28;20187;-57
2023/12/26 07:55:43;;;;;;;9.38;1.92;;;9.60;99.90;;;;;;5113757;28;20423;-57
2023/12/26 07:58:09;;;;;;;8.10;2.20;;;9.50;99.90;;;;;;5114623;28;20599;-57
2023/12/26 08:00:35;;;;;;;10.13;2.30;;;9.50;99.90;;;;;;5116212;28;20199;-56
2023/12/26 08:03:00;;;;;;;7.60;1.60;;;9.40;99.90;;;;;;5116094;28;20269;-56
2023/12/26 08:05:26;;;;;;;8.43;2.17;;;9.50;99.90;;;;;;5116202;28;20209;-58
2023/12/26 08:07:52;;;;;;;7.32;2.08;;;9.50;99.90;;;;;;5116071;28;20185;-58
2023/12/26 08:10:18;;;;;;;8.27;2.33;;;9.50;99.90;;;;;;5116219;28;20523;-57
2023/12/26 08:12:44;;;;;;;6.60;2.40;;;9.40;99.90;;;;;;5115972;28;20633;-58
2023/12/26 08:15:10;;;;;;;6.68;2.30;;;9.50;99.90;;;;;;5115927;28;20173;-58
2023/12/26 08:17:36;;;;;;;8.27;2.70;;;9.60;99.90;;;;;;5115924;28;20177;-58
2023/12/26 08:20:03;;;;;;;10.63;2.80;;;9.50;99.90;;;;;;5115902;28;20181;-58
2023/12/26 08:22:29;;;;;;;6.53;2.22;;;9.50;99.90;;;;;;5114713;28;20236;-57
2023/12/26 08:24:55;;;;;;;9.93;2.38;;;9.60;99.90;;;;;;5115788;28;20547;-58
2023/12/26 08:27:22;;;;;;;8.77;2.17;;;9.60;99.90;;;;;;5115620;28;20180;-57
2023/12/26 08:29:48;;;;;;;6.50;2.38;;;9.70;99.90;;;;;;5115534;28;20180;-57
2023/12/26 08:32:15;;;;;;;9.35;2.28;;;9.60;99.90;;;;;;5115391;28;20703;-59
2023/12/26 08:34:44;;;;;;;11.43;2.30;;;9.70;99.90;;;;;;5114698;28;20284;-57
2023/12/26 08:37:10;;;;;;;8.68;2.42;;;9.70;99.90;;;;;;5115516;28;20173;-56
2023/12/26 08:39:36;;;;;;;7.25;1.98;;;9.70;99.90;;;;;;5115508;28;20177;-57
2023/12/26 08:42:02;;;;;;;9.55;2.47;;;9.80;99.90;;;;;;5115280;28;20215;-59
2023/12/26 08:44:28;;;;;;;10.85;2.30;;;9.70;99.90;;;;;;5115287;28;20177;-57
2023/12/26 08:46:53;;;;;;;5.70;1.73;;;9.70;99.90;;;;;;5115343;28;20208;-57
2023/12/26 08:49:19;;;;;;;7.88;1.98;;;9.70;99.90;;;;;;5115381;28;20174;-58
2023/12/26 08:51:45;;;;;;;11.82;2.65;;;9.70;99.90;;;;;;5115273;28;20270;-57
2023/12/26 08:54:11;;;;;;;8.40;2.10;;;9.60;99.90;;;;;;5114944;28;20170;-56
2023/12/26 08:56:41;;;;;;;6.85;1.95;;;9.60;99.90;;;;;;5115171;28;20178;-57
2023/12/26 08:59:07;;;;;;;9.18;2.20;;;9.60;99.90;;;;;;5115164;28;20630;-56
2023/12/26 09:01:35;;;;;;;8.32;2.20;;;9.50;99.90;;;;;;5114909;28;20212;-56
2023/12/26 09:04:02;;;;;;;10.48;2.70;;;9.70;99.90;;;;;;5113733;28;20646;-56
2023/12/26 09:06:28;;;;;;;9.05;2.33;;;9.70;99.90;;;;;;5115167;28;20172;-56
2023/12/26 09:08:54;;;;;;;5.55;2.20;;;9.70;99.90;;;;;;5114931;28;20166;-56
2023/12/26 09:11:19;;;;;;;9.25;2.85;;;9.70;99.90;;;;;;5114920;28;20178;-55
2023/12/26 09:13:45;;;;;;;9.23;2.00;;;9.70;99.90;;;;;;5114871;28;20522;-57
2023/12/26 09:16:11;;;;;;;8.88;2.20;;;9.70;99.90;;;;;;5114817;28;20171;-56
2023/12/26 09:18:37;;;;;;;10.70;2.80;;;9.70;99.90;;;;;;5114795;28;20180;-56
2023/12/26 09:21:03;;;;;;;7.78;2.45;;;9.90;99.90;;;;;;5114619;28;20181;-57
2023/12/26 09:23:29;;;;;;;11.57;2.78;;;10.00;99.90;;;;;;5115125;28;20273;-57
2023/12/26 09:25:54;;;;;;;7.25;2.38;;;10.00;99.90;;;;;;5114351;28;20634;-56
2023/12/26 09:28:20;;;;;;;7.03;2.50;;;10.00;99.90;;;;;;5114600;28;20531;-56
2023/12/26 09:30:46;;;;;;;7.47;2.53;;;10.00;99.90;;;;;;5114538;28;20531;-57
2023/12/26 09:33:11;;;;;;;11.80;2.45;;;9.80;99.90;;;;;;5114780;28;20260;-57
2023/12/26 09:35:37;;;;;;;9.18;2.20;;;9.90;99.90;;;;;;5114413;28;20169;-56
2023/12/26 09:38:03;;;;;;;6.43;2.13;;;9.80;99.90;;;;;;5114718;28;20205;-56
2023/12/26 09:40:29;;;;;;;6.18;2.03;;;9.90;99.90;;;;;;5114119;28;20543;-56
2023/12/26 09:43:03;;;;;;;6.93;2.80;;;9.90;99.90;;;;;;5114365;28;20201;-57
2023/12/26 09:45:30;;;;;;;8.63;3.05;;;9.90;99.90;;;;;;5114323;28;20158;-57
2023/12/26 09:47:56;;;;;;;9.40;2.78;;;9.80;99.90;;;;;;5113438;28;20177;-55
2023/12/26 09:50:23;;;;;;;13.45;4.00;;;9.60;99.90;;;;;;5114258;28;20169;-57
2023/12/26 09:52:56;;;;;;;7.97;3.08;;;9.60;99.90;;;;;;5114436;27;20173;-55
2023/12/26 09:55:23;;;;;;;5.85;2.13;;;9.50;99.90;;;;;;5113873;28;20163;-56
2023/12/26 09:57:49;;;;;;;10.63;3.00;;;9.50;99.90;;;;;;5114158;28;20688;-56
2023/12/26 10:00:15;;;;;;;10.77;2.75;;;9.40;99.90;;;;;;5114114;28;20177;-55
2023/12/26 10:02:43;;;;;;;10.45;3.05;;;9.40;99.90;;;;;;5114209;28;20681;-55
2023/12/26 10:05:10;;;;;;;9.45;2.95;;;9.40;99.90;;;;;;5114035;28;20173;-57
2023/12/26 10:07:36;;;;;;;10.85;3.00;;;9.50;99.90;;;;;;5114054;28;20203;-57
2023/12/26 10:10:02;;;;;;;10.10;3.15;;;9.40;99.90;;;;;;5114018;28;20172;-57
2023/12/26 10:12:31;;;;;;;9.30;2.72;;;9.40;99.90;;;;;;5113912;28;20233;-57
2023/12/26 10:15:04;;;;;;;8.40;2.70;;;9.20;99.90;;;;;;5113977;28;20169;-57
2023/12/26 10:17:30;;;;;;;9.05;2.72;;;9.30;99.90;;;;;;5114016;28;20218;-57
2023/12/26 10:19:57;;;;;;;10.38;2.85;;;9.30;99.90;;;;;;5114159;28;20185;-56
2023/12/26 10:22:24;;;;;;;10.68;2.78;;;9.40;99.90;;;;;;5113491;28;20225;-57
2023/12/26 10:24:50;;;;;;;10.50;2.97;;;9.40;99.90;;;;;;5113563;28;20185;-57
2023/12/26 10:27:16;;;;;;;11.65;2.70;;;9.40;99.90;;;;;;5113964;28;20297;-56
2023/12/26 10:29:58;;;;;;;9.82;2.30;;;9.40;99.90;;;;;;5114144;28;20161;-57
2023/12/26 10:32:25;;;;;;;11.57;2.50;;;9.50;99.90;;;;;;5113872;28;20197;-57
2023/12/26 10:34:54;;;;;;;10.18;2.70;;;9.40;99.90;;;;;;5113963;28;20197;-57
2023/12/26 10:37:24;;;;;;;10.65;2.95;;;9.40;99.90;;;;;;5113783;28;20574;-57
2023/12/26 10:39:53;;;;;;;8.38;2.85;;;9.50;99.90;;;;;;5113665;28;20185;-56
2023/12/26 10:42:19;;;;;;;11.82;2.65;;;9.60;99.90;;;;;;5113637;28;20283;-56
2023/12/26 10:45:02;;;;;;;10.73;3.22;;;9.60;99.90;;;;;;5113637;28;20224;-56
2023/12/26 10:47:30;;;;;;;9.43;2.33;;;9.70;99.90;;;;;;5113815;28;20195;-56
2023/12/26 10:49:59;;;;;;;10.90;2.45;;;9.80;99.90;;;;;;5113296;28;20526;-57
2023/12/26 10:52:28;;;;;;;8.25;2.45;;;9.90;99.90;;;;;;5113498;28;20179;-57
2023/12/26 10:54:56;;;;;;;9.75;3.10;;;10.00;99.90;;;;;;5113583;28;20260;-57
2023/12/26 10:57:24;;;;;;;8.93;2.63;;;10.10;99.90;;;;;;5114922;28;20165;-56
2023/12/26 13:52:09;;;;;;;8.88;3.33;;;10.60;99.90;;;;;;5113246;28;20217;-54
2023/12/26 13:55:12;;;;;;;10.82;3.35;;;10.60;99.90;;;;;;5113070;28;20653;-53
2023/12/26 13:58:14;;;;;;;13.75;3.40;;;10.60;99.90;;;;;;5112810;28;20169;-53
2023/12/26 14:01:18;;;;;;;10.63;3.10;;;10.60;99.90;;;;;;5112918;28;20180;-51
2023/12/26 14:04:21;;;;;;;11.93;3.53;;;10.60;99.90;;;;;;5112890;28;20226;-54
2023/12/26 14:07:24;;;;;;;13.98;3.30;;;10.60;99.90;;;;;;5112414;28;20188;-53
2023/12/26 14:10:27;;;;;;;11.35;3.00;;;10.70;99.90;;;;;;5112508;28;20172;-53
2023/12/26 14:13:30;;;;;;;14.48;3.10;;;10.70;99.90;;;;;;5094802;28;20182;-54
2023/12/26 14:16:33;;;;;;;13.73;3.20;;;10.70;99.90;;;;;;5101935;28;20189;-52
2023/12/26 14:19:36;;;;;;;7.70;2.63;;;10.70;99.90;;;;;;5112788;28;20175;-52
2023/12/26 14:22:39;;;;;;;11.10;3.15;;;10.80;99.90;;;;;;5112655;28;20239;-53
2023/12/26 14:25:42;;;;;;;13.73;3.45;;;10.60;99.90;;;;;;5112628;28;20195;-53
2023/12/26 14:28:45;;;;;;;8.38;2.45;;;10.40;99.90;;;;;;5112539;28;20172;-54
2023/12/26 14:31:48;;;;;;;9.10;2.97;;;10.40;99.90;;;;;;5112429;28;20633;-53
2023/12/26 14:34:51;;;;;;;11.63;2.80;;;10.40;99.90;;;;;;5117243;28;20165;-54
2023/12/26 14:37:54;;;;;;;12.55;3.60;;;10.30;99.90;;;;;;5116787;28;20172;-54
2023/12/26 14:40:57;;;;;;;12.90;3.15;;;10.30;99.90;;;;;;5116883;28;20153;-54
2023/12/26 14:44:00;;;;;;;9.98;3.47;;;10.30;99.90;;;;;;5116106;28;20693;-54
2023/12/26 14:47:03;;;;;;;12.50;3.08;;;10.30;99.90;;;;;;5116201;28;20180;-52
2023/12/26 14:50:06;;;;;;;9.93;3.00;;;10.30;99.90;;;;;;5116657;28;20172;-53
2023/12/26 14:53:09;;;;;;;10.57;3.45;;;10.30;99.90;;;;;;5116346;28;20179;-53
2023/12/26 14:56:12;;;;;;;16.42;3.38;;;10.20;99.90;;;;;;5115814;28;20169;-54
2023/12/26 14:59:15;;;;;;;9.32;3.25;;;10.10;99.90;;;;;;5113132;28;20656;-54
2023/12/26 15:01:54;;;;;;;13.23;3.80;;;10.20;99.90;;;;;;5114556;28;20287;-51
2023/12/26 15:04:19;;;;;;;14.68;3.50;;;10.30;99.90;;;;;;5116521;28;20176;-54
2023/12/26 15:06:45;;;;;;;9.45;2.88;;;10.30;99.90;;;;;;5116140;28;20177;-53
2023/12/26 15:09:12;;;;;;;11.20;3.75;;;10.30;99.90;;;;;;5116653;28;20188;-50
2023/12/26 15:11:38;;;;;;;11.73;3.42;;;10.30;99.90;;;;;;5115553;28;20637;-54
2023/12/26 15:14:04;;;;;;;8.05;2.92;;;10.30;99.90;;;;;;5116419;28;20187;-54
2023/12/26 15:16:30;;;;;;;10.82;3.55;;;10.40;99.90;;;;;;5116359;28;20169;-53
2023/12/26 15:18:56;;;;;;;10.85;3.50;;;10.20;99.90;;;;;;5116265;28;20276;-54
2023/12/26 15:21:22;;;;;;;12.20;3.90;;;10.20;99.90;;;;;;5115664;28;20283;-54
2023/12/26 15:23:51;;;;;;;11.20;3.58;;;10.20;99.90;;;;;;5116322;28;20211;-53
2023/12/26 15:26:16;;;;;;;15.40;3.85;;;10.30;99.90;;;;;;5116090;28;20185;-54
2023/12/26 15:28:43;;;;;;;10.43;3.10;;;10.20;99.90;;;;;;5116418;28;20525;-53
2023/12/26 15:31:14;;;;;;;12.02;3.15;;;10.30;99.90;;;;;;5116007;28;20204;-55
2023/12/26 15:33:44;;;;;;;9.00;3.33;;;10.20;99.90;;;;;;5115994;28;20205;-54
2023/12/26 15:36:20;;;;;;;15.90;3.75;;;10.20;99.90;;;;;;5115874;28;20212;-53
2023/12/26 15:38:46;;;;;;;13.18;2.80;;;10.10;99.90;;;;;;5116042;28;20181;-52
2023/12/26 15:41:13;;;;;;;11.65;2.97;;;10.10;99.90;;;;;;5115658;28;20575;-55
2023/12/26 15:43:39;;;;;;;10.25;3.10;;;10.20;99.90;;;;;;5114996;28;20358;-54
2023/12/26 15:46:17;;;;;;;9.90;3.25;;;10.10;99.90;;;;;;5115780;28;20173;-53
2023/12/26 15:48:43;;;;;;;11.98;3.10;;;10.20;99.90;;;;;;5115765;28;20165;-54
2023/12/26 15:51:09;;;;;;;10.80;3.58;;;10.10;99.90;;;;;;5115718;27;20268;-53